createdAt,value
2019-04-06T00:01:28.015Z,31.97
2019-04-06T00:04:00.105Z,30.60
2019-04-06T00:06:29.719Z,35.10
2019-04-06T00:08:59.231Z,35.50
2019-04-06T00:11:28.528Z,35.97
2019-04-06T00:13:58.228Z,30.43
2019-04-06T00:16:27.743Z,32.80
2019-04-06T00:18:57.267Z,36.67
2019-04-06T00:21:26.989Z,35.03
2019-04-06T00:23:56.554Z,38.27
2019-04-06T00:26:26.213Z,29.77
2019-04-06T00:28:55.684Z,31.60
2019-04-06T00:31:38.328Z,33.47
2019-04-06T00:34:12.049Z,42.33
2019-04-06T00:36:41.195Z,35.43
2019-04-06T00:39:10.492Z,30.17
2019-04-06T00:41:40.047Z,36.27
2019-04-06T00:44:09.036Z,38.60
2019-04-06T00:46:38.206Z,34.50
2019-04-06T00:49:10.075Z,34.07
2019-04-06T00:51:39.298Z,35.53
2019-04-06T00:54:08.761Z,31.43
2019-04-06T00:56:38.077Z,35.00
2019-04-06T00:59:07.644Z,33.83
2019-04-06T01:01:37.271Z,35.80
2019-04-06T01:04:06.662Z,33.23
2019-04-06T01:06:36.954Z,35.00
2019-04-06T01:09:09.026Z,30.93
2019-04-06T01:11:38.811Z,34.10
2019-04-06T01:14:10.705Z,34.40
2019-04-06T01:16:40.273Z,36.23
2019-04-06T01:19:10.015Z,38.53
2019-04-06T01:21:39.701Z,35.47
2019-04-06T01:24:10.882Z,32.27
2019-04-06T01:26:42.369Z,36.63
2019-04-06T01:29:11.886Z,35.13
2019-04-06T01:31:44.255Z,31.57
2019-04-06T01:34:13.379Z,30.43
2019-04-06T01:36:43.084Z,30.60
2019-04-06T01:39:12.345Z,30.40
2019-04-06T01:41:41.871Z,33.97
2019-04-06T01:44:11.377Z,32.67
2019-04-06T01:46:40.699Z,35.10
2019-04-06T01:49:10.429Z,34.20
2019-04-06T01:51:39.684Z,31.00
2019-04-06T01:54:08.989Z,39.03
2019-04-06T01:56:39.954Z,37.83
2019-04-06T01:59:10.447Z,34.83
2019-04-06T02:01:56.191Z,34.17
2019-04-06T02:04:25.862Z,36.17
2019-04-06T02:06:55.558Z,33.23
2019-04-06T02:09:25.747Z,35.90
2019-04-06T02:11:54.985Z,34.93
2019-04-06T02:14:24.476Z,35.33
2019-04-06T02:16:56.537Z,34.93
2019-04-06T02:19:26.175Z,32.07
2019-04-06T02:21:55.885Z,39.83
2019-04-06T02:24:25.003Z,28.97
2019-04-06T02:26:54.256Z,35.07
2019-04-06T02:29:23.816Z,34.60
2019-04-06T02:32:24.396Z,33.33
2019-04-06T02:35:15.647Z,34.30
2019-04-06T02:37:54.799Z,31.70
2019-04-06T02:40:36.541Z,35.73
2019-04-06T02:43:15.683Z,34.80
2019-04-06T02:45:45.177Z,33.67
2019-04-06T02:48:16.574Z,29.17
2019-04-06T02:50:45.631Z,39.87
2019-04-06T02:53:15.124Z,34.67
2019-04-06T02:55:44.457Z,34.93
2019-04-06T02:58:14.364Z,33.70
2019-04-06T03:00:44.047Z,35.33
2019-04-06T03:03:13.996Z,34.43
2019-04-06T03:05:43.307Z,34.40
2019-04-06T03:08:15.401Z,29.33
2019-04-06T03:10:45.765Z,36.30
2019-04-06T03:13:15.269Z,31.83
2019-04-06T03:15:44.644Z,37.07
2019-04-06T03:18:16.347Z,35.13
2019-04-06T03:20:48.162Z,34.60
2019-04-06T03:23:17.623Z,37.40
2019-04-06T03:25:46.943Z,32.67
2019-04-06T03:28:16.357Z,33.87
2019-04-06T03:30:48.549Z,32.60
2019-04-06T03:33:18.099Z,38.17
2019-04-06T03:35:49.500Z,35.97
2019-04-06T03:38:18.321Z,33.20
2019-04-06T03:40:47.235Z,34.27
2019-04-06T03:43:17.932Z,37.67
2019-04-06T03:45:46.907Z,30.97
2019-04-06T03:48:16.335Z,34.33
2019-04-06T03:50:45.852Z,32.37
2019-04-06T03:53:15.589Z,33.67
2019-04-06T03:55:45.289Z,39.80
2019-04-06T03:58:15.847Z,37.37
2019-04-06T04:00:45.514Z,38.13
2019-04-06T04:03:14.615Z,35.30
2019-04-06T04:05:43.517Z,35.33
2019-04-06T04:08:12.793Z,37.27
2019-04-06T04:10:46.866Z,38.60
2019-04-06T04:13:15.905Z,35.50
2019-04-06T04:15:44.765Z,36.93
2019-04-06T04:18:20.250Z,33.30
2019-04-06T04:20:52.699Z,36.47
2019-04-06T04:23:25.046Z,36.03
2019-04-06T04:25:54.928Z,36.70
2019-04-06T04:28:27.690Z,35.50
2019-04-06T04:30:59.738Z,36.00
2019-04-06T04:33:30.371Z,40.90
2019-04-06T04:36:00.027Z,61.03
2019-04-06T04:38:33.591Z,60.90
2019-04-06T04:41:03.299Z,48.43
2019-04-06T04:43:32.893Z,45.10
2019-04-06T04:46:02.618Z,38.87
2019-04-06T04:48:32.808Z,41.80
2019-04-06T04:51:01.942Z,38.23
2019-04-06T04:53:31.531Z,41.63
2019-04-06T04:56:01.278Z,44.63
2019-04-06T04:58:31.164Z,40.10
2019-04-06T05:01:03.387Z,42.37
2019-04-06T05:03:32.836Z,43.00
2019-04-06T05:06:02.406Z,37.93
2019-04-06T05:08:32.057Z,37.73
2019-04-06T05:11:01.812Z,46.87
2019-04-06T05:13:31.305Z,56.60
2019-04-06T05:16:12.792Z,45.10
2019-04-06T05:18:44.592Z,41.37
2019-04-06T05:21:14.341Z,37.50
2019-04-06T05:23:45.072Z,37.63
2019-04-06T05:26:14.803Z,36.43
2019-04-06T05:28:44.515Z,36.87
2019-04-06T05:31:14.038Z,38.00
2019-04-06T05:33:43.793Z,32.87
2019-04-06T05:36:15.894Z,36.47
2019-04-06T05:38:48.444Z,39.97
2019-04-06T05:41:17.759Z,33.60
2019-04-06T05:43:47.648Z,39.23
2019-04-06T05:46:17.268Z,40.20
2019-04-06T05:48:47.366Z,40.27
2019-04-06T05:51:16.806Z,33.10
2019-04-06T05:53:45.760Z,34.17
2019-04-06T05:56:15.396Z,34.53
2019-04-06T05:58:44.923Z,32.77
2019-04-06T06:01:14.053Z,32.77
2019-04-06T06:03:43.905Z,34.63
2019-04-06T06:06:13.874Z,38.60
2019-04-06T06:08:43.360Z,32.27
2019-04-06T06:11:13.276Z,40.20
2019-04-06T06:13:42.660Z,40.53
2019-04-06T06:16:14.414Z,38.90
2019-04-06T06:18:44.620Z,39.40
2019-04-06T06:21:16.324Z,35.33
2019-04-06T06:23:44.873Z,37.83
2019-04-06T06:26:14.371Z,33.97
2019-04-06T06:28:44.314Z,37.30
2019-04-06T06:31:13.423Z,41.83
2019-04-06T06:33:42.897Z,37.73
2019-04-06T06:36:11.801Z,36.07
2019-04-06T06:38:40.959Z,36.37
2019-04-06T06:41:10.812Z,34.47
2019-04-06T06:43:41.106Z,34.80
2019-04-06T06:46:10.676Z,35.27
2019-04-06T06:48:39.927Z,36.10
2019-04-06T06:51:09.068Z,33.63
2019-04-06T06:53:39.784Z,36.43
2019-04-06T06:56:08.760Z,37.77
2019-04-06T06:58:38.591Z,34.27
2019-04-06T07:01:07.905Z,36.37
2019-04-06T07:03:37.527Z,45.57
2019-04-06T07:06:14.072Z,39.27
2019-04-06T07:08:43.547Z,38.50
2019-04-06T07:11:12.877Z,166.47
2019-04-06T07:16:56.115Z,115.03
2019-04-06T07:19:26.433Z,34.33
2019-04-06T07:21:55.951Z,33.57
2019-04-06T07:24:26.126Z,32.47
2019-04-06T07:26:56.412Z,32.53
2019-04-06T07:29:27.924Z,37.20
2019-04-06T07:31:57.286Z,33.97
2019-04-06T07:34:26.324Z,34.20
2019-04-06T07:36:58.904Z,33.87
2019-04-06T07:39:29.040Z,33.07
2019-04-06T07:41:58.157Z,31.17
2019-04-06T07:44:27.922Z,32.07
2019-04-06T07:46:57.296Z,33.53
2019-04-06T07:49:26.862Z,31.13
2019-04-06T07:51:58.792Z,39.00
2019-04-06T07:54:27.729Z,34.83
2019-04-06T07:56:56.610Z,32.53
2019-04-06T07:59:25.483Z,30.80
2019-04-06T08:01:54.444Z,31.60
2019-04-06T08:04:25.207Z,32.30
2019-04-06T08:06:54.641Z,34.37
2019-04-06T08:09:24.547Z,40.80
2019-04-06T08:11:58.145Z,38.40
2019-04-06T08:14:30.529Z,36.30
2019-04-06T08:17:00.213Z,37.27
2019-04-06T08:19:29.658Z,34.90
2019-04-06T08:21:59.833Z,36.27
2019-04-06T08:24:29.136Z,33.27
2019-04-06T08:26:58.129Z,35.77
2019-04-06T08:29:27.077Z,35.37
2019-04-06T08:31:55.949Z,33.80
2019-04-06T08:34:24.894Z,31.07
2019-04-06T08:36:53.838Z,44.50
2019-04-06T08:39:25.310Z,35.80
2019-04-06T08:41:53.369Z,31.30
2019-04-06T08:44:24.620Z,35.27
2019-04-06T08:46:53.587Z,36.10
2019-04-06T08:49:22.674Z,34.83
2019-04-06T08:51:51.792Z,38.13
2019-04-06T08:54:24.761Z,36.00
2019-04-06T08:56:54.138Z,36.07
2019-04-06T08:59:23.638Z,34.93
2019-04-06T09:01:52.803Z,49.40
2019-04-06T09:04:23.335Z,33.23
2019-04-06T09:06:52.308Z,42.37
2019-04-06T09:09:21.330Z,35.23
2019-04-06T09:11:50.262Z,38.37
2019-04-06T09:14:19.667Z,38.83
2019-04-06T09:16:49.912Z,34.53
2019-04-06T09:19:19.639Z,41.43
2019-04-06T09:21:48.790Z,38.73
2019-04-06T09:24:20.470Z,37.23
2019-04-06T09:26:49.515Z,33.23
2019-04-06T09:29:23.907Z,39.17
2019-04-06T09:31:49.287Z,39.03
2019-04-06T09:34:18.305Z,37.43
2019-04-06T09:36:47.484Z,37.03
2019-04-06T09:39:19.450Z,33.43
2019-04-06T09:41:50.479Z,34.93
2019-04-06T09:44:39.819Z,33.00
2019-04-06T09:47:28.147Z,34.00
2019-04-06T09:50:20.048Z,37.30
2019-04-06T09:53:06.837Z,38.63
2019-04-06T09:56:15.389Z,39.37
2019-04-06T09:59:10.998Z,34.83
2019-04-06T10:01:59.048Z,36.20
2019-04-06T10:05:08.447Z,33.13
2019-04-06T10:07:54.875Z,34.40
2019-04-06T10:10:41.779Z,42.43
2019-04-06T10:13:38.894Z,40.50
2019-04-06T10:16:30.270Z,40.10
2019-04-06T10:19:16.732Z,34.93
2019-04-06T10:22:03.274Z,39.17
2019-04-06T10:24:51.298Z,36.30
2019-04-06T10:27:43.778Z,35.20
2019-04-06T10:30:35.575Z,37.30
2019-04-06T10:33:33.151Z,38.87
2019-04-06T10:36:24.052Z,40.17
2019-04-06T10:39:11.893Z,32.00
2019-04-06T10:42:06.062Z,29.23
2019-04-06T10:45:00.484Z,29.57
2019-04-06T10:47:52.037Z,26.73
2019-04-06T10:50:44.775Z,31.03
2019-04-06T10:53:31.645Z,34.53
2019-04-06T10:56:19.793Z,30.87
2019-04-06T10:59:14.133Z,30.77
2019-04-06T11:02:02.657Z,27.80
2019-04-06T11:04:40.765Z,27.93
2019-04-06T11:07:29.486Z,29.43
2019-04-06T11:10:23.576Z,27.67
2019-04-06T11:13:20.517Z,40.17
2019-04-06T11:16:13.768Z,33.47
2019-04-06T11:19:02.587Z,31.70
2019-04-06T11:21:44.418Z,28.50
2019-04-06T11:24:31.055Z,27.97
2019-04-06T11:27:34.948Z,28.57
2019-04-06T11:30:30.620Z,31.07
2019-04-06T11:33:17.383Z,31.43
2019-04-06T11:36:11.225Z,30.97
2019-04-06T11:38:59.257Z,32.57
2019-04-06T11:42:05.904Z,29.07
2019-04-06T11:44:56.689Z,29.43
2019-04-06T11:47:53.719Z,33.57
2019-04-06T11:50:43.931Z,27.40
2019-04-06T11:53:25.147Z,27.30
2019-04-06T11:56:08.221Z,34.13
2019-04-06T11:58:54.636Z,33.53
2019-04-06T12:01:48.222Z,34.77
2019-04-06T12:04:36.174Z,31.27
2019-04-06T12:07:31.675Z,30.40
2019-04-06T12:10:29.315Z,37.20
2019-04-06T12:13:05.142Z,28.23
2019-04-06T12:15:53.989Z,31.13
2019-04-06T12:18:39.242Z,36.97
2019-04-06T12:21:20.433Z,28.17
2019-04-06T12:24:02.753Z,32.23
2019-04-06T12:26:55.087Z,31.63
2019-04-06T12:30:04.132Z,28.60
2019-04-06T12:32:55.244Z,36.20
2019-04-06T12:35:39.498Z,31.13
2019-04-06T12:38:30.485Z,26.37
2019-04-06T12:41:31.167Z,29.63
2019-04-06T12:44:18.784Z,26.80
2019-04-06T12:47:22.204Z,27.77
2019-04-06T12:50:15.136Z,30.73
2019-04-06T12:53:05.041Z,30.53
2019-04-06T12:55:47.695Z,29.73
2019-04-06T12:58:42.344Z,26.60
2019-04-06T13:01:31.524Z,30.57
2019-04-06T13:04:29.605Z,33.97
2019-04-06T13:07:18.277Z,37.17
2019-04-06T13:10:23.791Z,32.60
2019-04-06T13:13:18.420Z,36.50
2019-04-06T13:15:53.153Z,31.77
2019-04-06T13:18:53.753Z,28.33
2019-04-06T13:21:41.350Z,27.53
2019-04-06T13:24:33.339Z,27.07
2019-04-06T13:27:09.039Z,31.10
2019-04-06T13:30:00.568Z,33.03
2019-04-06T13:32:47.914Z,32.80
2019-04-06T13:35:54.687Z,28.80
2019-04-06T13:38:32.180Z,33.87
2019-04-06T13:41:19.277Z,28.90
2019-04-06T13:44:08.239Z,26.03
2019-04-06T13:47:01.522Z,39.70
2019-04-06T13:49:57.870Z,34.13
2019-04-06T13:52:37.659Z,31.97
2019-04-06T13:55:25.460Z,38.70
2019-04-06T13:58:18.851Z,28.37
2019-04-06T14:01:14.357Z,31.13
2019-04-06T14:03:58.136Z,38.70
2019-04-06T14:06:49.158Z,129.23
2019-04-06T14:09:43.653Z,32.03
2019-04-06T14:12:33.514Z,34.33
2019-04-06T14:15:25.372Z,27.03
2019-04-06T14:18:28.973Z,32.13
2019-04-06T14:21:15.444Z,32.00
2019-04-06T14:24:12.205Z,31.23
2019-04-06T14:27:00.153Z,37.63
2019-04-06T14:30:02.653Z,40.70
2019-04-06T14:32:53.420Z,32.57
2019-04-06T14:35:41.760Z,34.40
2019-04-06T14:38:45.456Z,31.27
2019-04-06T14:41:46.341Z,38.27
2019-04-06T14:44:33.268Z,54.23
2019-04-06T14:47:09.668Z,46.17
2019-04-06T14:49:51.032Z,31.70
2019-04-06T14:52:48.494Z,38.73
2019-04-06T14:55:35.802Z,42.40
2019-04-06T14:58:40.259Z,31.87
2019-04-06T15:01:51.138Z,37.30
2019-04-06T15:04:28.456Z,29.67
2019-04-06T15:07:11.454Z,26.00
2019-04-06T15:10:00.881Z,34.43
2019-04-06T15:12:47.781Z,27.27
2019-04-06T15:15:36.202Z,34.20
2019-04-06T15:18:27.284Z,26.63
2019-04-06T15:21:31.045Z,27.83
2019-04-06T15:24:31.504Z,28.70
2019-04-06T15:27:27.628Z,30.17
2019-04-06T15:30:34.610Z,30.50
2019-04-06T15:33:25.010Z,28.67
2019-04-06T15:36:16.431Z,26.57
2019-04-06T15:38:55.649Z,29.27
2019-04-06T15:41:54.665Z,31.07
2019-04-06T15:44:36.863Z,28.27
2019-04-06T15:47:40.299Z,28.63
2019-04-06T15:50:34.845Z,28.63
2019-04-06T15:53:28.856Z,32.57
2019-04-06T15:56:10.220Z,36.17
2019-04-06T15:59:06.796Z,29.90
2019-04-06T16:01:43.751Z,32.23
2019-04-06T16:04:30.516Z,36.57
2019-04-06T16:07:09.227Z,28.90
2019-04-06T16:09:57.260Z,33.17
2019-04-06T16:12:45.707Z,30.27
2019-04-06T16:15:38.651Z,36.03
2019-04-06T16:18:28.898Z,35.13
2019-04-06T16:21:23.003Z,30.27
2019-04-06T16:24:10.201Z,31.60
2019-04-06T16:26:50.663Z,29.13
2019-04-06T16:29:37.391Z,30.83
2019-04-06T16:32:32.525Z,30.87
2019-04-06T16:35:29.218Z,30.87
2019-04-06T16:38:16.513Z,30.07
2019-04-06T16:41:04.948Z,30.13
2019-04-06T16:43:53.027Z,37.43
2019-04-06T16:46:32.332Z,41.87
2019-04-06T16:49:19.793Z,68.47
2019-04-06T16:52:18.112Z,44.27
2019-04-06T16:54:57.482Z,39.93
2019-04-06T16:57:40.411Z,34.27
2019-04-06T17:00:26.472Z,42.07
2019-04-06T17:03:06.711Z,34.23
2019-04-06T17:05:58.284Z,39.10
2019-04-06T17:09:04.908Z,37.77
2019-04-06T17:11:55.683Z,39.63
2019-04-06T17:14:47.480Z,40.90
2019-04-06T17:17:34.100Z,40.50
2019-04-06T17:20:40.342Z,40.53
2019-04-06T17:23:28.778Z,50.80
2019-04-06T17:26:16.994Z,160.80
2019-04-06T17:29:17.334Z,106.10
2019-04-06T17:32:14.353Z,49.43
2019-04-06T17:34:59.854Z,53.43
2019-04-06T17:37:47.609Z,51.53
2019-04-06T17:40:38.982Z,44.53
2019-04-06T17:43:42.606Z,41.80
2019-04-06T17:46:30.252Z,49.00
2019-04-06T17:49:16.984Z,43.30
2019-04-06T17:52:03.051Z,43.57
2019-04-06T17:55:02.683Z,41.10
2019-04-06T17:57:46.281Z,33.63
2019-04-06T18:00:35.269Z,44.90
2019-04-06T18:03:16.983Z,34.03
2019-04-06T18:06:10.919Z,35.27
2019-04-06T18:08:59.107Z,20.10
2019-04-06T18:11:37.609Z,24.93
2019-04-06T18:14:07.682Z,40.03
2019-04-06T18:16:37.611Z,26.30
2019-04-06T18:19:07.100Z,29.70
2019-04-06T18:21:36.927Z,26.50
2019-04-06T18:24:06.322Z,43.47
2019-04-06T18:26:35.830Z,40.40
2019-04-06T18:29:07.976Z,38.67
2019-04-06T18:31:56.360Z,30.63
2019-04-06T18:34:26.202Z,25.57
2019-04-06T18:37:18.948Z,19.67
2019-04-06T18:39:49.311Z,18.60
2019-04-06T18:42:19.564Z,23.53
2019-04-06T18:44:50.930Z,27.67
2019-04-06T18:47:21.042Z,35.73
2019-04-06T18:49:50.426Z,70.03
2019-04-06T18:52:20.094Z,64.57
2019-04-06T18:54:49.606Z,61.73
2019-04-06T18:57:19.747Z,51.53
2019-04-06T18:59:49.429Z,34.17
2019-04-06T19:02:20.047Z,42.50
2019-04-06T19:04:54.243Z,27.40
2019-04-06T19:07:23.535Z,35.20
2019-04-06T19:09:53.975Z,36.60
2019-04-06T19:12:24.903Z,39.10
2019-04-06T19:14:55.846Z,40.97
2019-04-06T19:17:27.388Z,38.27
2019-04-06T19:19:56.684Z,44.33
2019-04-06T19:22:26.199Z,40.53
2019-04-06T19:24:59.243Z,96.60
2019-04-06T19:27:28.879Z,92.63
2019-04-06T19:29:59.873Z,65.03
2019-04-06T19:32:29.545Z,63.83
2019-04-06T19:35:06.981Z,57.10
2019-04-06T19:37:38.484Z,72.40
2019-04-06T19:40:10.143Z,85.50
2019-04-06T19:42:40.887Z,88.67
2019-04-06T19:45:10.381Z,92.77
2019-04-06T19:47:47.679Z,68.47
2019-04-06T19:50:21.486Z,71.10
2019-04-06T19:52:55.217Z,58.77
2019-04-06T19:55:26.281Z,57.77
2019-04-06T19:57:56.021Z,50.03
2019-04-06T20:00:30.120Z,48.10
2019-04-06T20:03:03.437Z,33.23
2019-04-06T20:05:32.478Z,35.30
2019-04-06T20:08:03.616Z,25.67
2019-04-06T20:10:35.572Z,24.13
2019-04-06T20:13:11.324Z,28.17
2019-04-06T20:15:41.064Z,30.90
2019-04-06T20:18:14.148Z,29.77
2019-04-06T20:20:44.162Z,31.63
2019-04-06T20:23:13.993Z,30.73
2019-04-06T20:25:46.366Z,27.40
2019-04-06T20:28:16.246Z,27.63
2019-04-06T20:30:45.943Z,27.13
2019-04-06T20:33:16.262Z,26.20
2019-04-06T20:35:48.673Z,34.37
2019-04-06T20:38:18.141Z,32.40
2019-04-06T20:40:48.186Z,30.97
2019-04-06T20:43:25.759Z,36.10
2019-04-06T20:45:55.375Z,37.57
2019-04-06T20:48:25.740Z,32.57
2019-04-06T20:50:58.805Z,32.37
2019-04-06T20:53:28.101Z,28.87
2019-04-06T20:55:57.800Z,32.60
2019-04-06T20:58:28.443Z,33.77
2019-04-06T21:00:58.837Z,35.67
2019-04-06T21:03:32.277Z,34.70
2019-04-06T21:06:01.954Z,35.33
2019-04-06T21:08:32.469Z,39.57
2019-04-06T21:11:02.012Z,38.97
2019-04-06T21:13:33.161Z,40.87
2019-04-06T21:16:06.801Z,42.17
2019-04-06T21:18:36.683Z,40.50
2019-04-06T21:21:08.711Z,45.07
2019-04-06T21:23:38.535Z,68.30
2019-04-06T21:26:10.945Z,58.83
2019-04-06T21:28:40.790Z,56.17
2019-04-06T21:31:12.569Z,64.47
2019-04-06T21:33:41.366Z,97.97
2019-04-06T21:36:12.457Z,111.83
2019-04-06T21:38:42.879Z,116.90
2019-04-06T21:41:15.083Z,80.60
2019-04-06T21:43:44.794Z,61.97
2019-04-06T21:46:14.533Z,59.27
2019-04-06T21:48:44.058Z,51.27
2019-04-06T21:51:16.495Z,44.67
2019-04-06T21:53:45.899Z,48.73
2019-04-06T21:56:15.674Z,52.77
2019-04-06T21:58:49.135Z,46.10
2019-04-06T22:01:19.574Z,48.33
2019-04-06T22:03:52.635Z,51.47
2019-04-06T22:06:24.388Z,46.00
2019-04-06T22:08:53.475Z,45.47
2019-04-06T22:11:23.100Z,61.20
2019-04-06T22:13:54.029Z,59.57
2019-04-06T22:16:25.634Z,63.00
2019-04-06T22:19:00.019Z,60.87
2019-04-06T22:21:31.984Z,56.10
2019-04-06T22:24:01.299Z,55.73
2019-04-06T22:26:38.350Z,54.73
2019-04-06T22:29:10.563Z,55.67
2019-04-06T22:31:41.555Z,55.40
2019-04-06T22:34:13.555Z,56.40
2019-04-06T22:36:48.794Z,56.80
2019-04-06T22:39:23.101Z,53.07
2019-04-06T22:41:53.703Z,62.17
2019-04-06T22:44:23.689Z,62.57
2019-04-06T22:46:54.856Z,48.40
2019-04-06T22:49:25.378Z,49.60
2019-04-06T22:51:54.986Z,53.23
2019-04-06T22:54:24.617Z,50.37
2019-04-06T22:56:59.045Z,54.97
2019-04-06T22:59:32.520Z,53.50
2019-04-06T23:02:02.396Z,54.30
2019-04-06T23:04:51.252Z,49.83
2019-04-06T23:07:25.581Z,57.17
2019-04-06T23:09:55.051Z,53.43
2019-04-06T23:12:24.624Z,56.50
2019-04-06T23:14:54.031Z,57.10
2019-04-06T23:17:25.114Z,53.47
2019-04-06T23:19:54.901Z,60.17
2019-04-06T23:22:26.292Z,53.93
2019-04-06T23:24:56.453Z,53.20
2019-04-06T23:27:26.273Z,53.53
2019-04-06T23:29:58.763Z,56.33
2019-04-06T23:32:28.548Z,56.47
2019-04-06T23:35:01.498Z,46.50
2019-04-06T23:37:28.749Z,46.47
2019-04-06T23:39:59.527Z,43.90
2019-04-06T23:42:29.669Z,45.13
2019-04-06T23:44:59.403Z,42.27
2019-04-06T23:47:28.862Z,41.97
2019-04-06T23:49:58.412Z,43.13
2019-04-06T23:52:29.675Z,45.17
2019-04-06T23:54:59.249Z,42.33
2019-04-06T23:57:29.187Z,41.00
